Time,TemperatureF,DewpointF,PressureIn,WindDirection,WindDirectionDegrees,WindSpeedMPH,WindSpeedGustMPH,Humidity,HourlyPrecipIn,Conditions,Clouds,dailyrainin,SoftwareType,DateUTC
2013-01-20 00:00:00,35.7,17.9,29.78,SSW,192,3.0,10.0,48,0.00,RA,,0.00,WeatherDisplay:10.37,2013-01-20 05:00:00,
2013-01-20 00:02:00,35.4,17.6,29.76,SSE,158,8.5,8.5,48,0.00,RA,,0.00,WeatherDisplay:10.37,2013-01-20 05:02:00,
2013-01-20 00:03:00,35.5,17.7,29.76,South,180,9.2,9.2,48,0.00,RA,,0.00,WeatherDisplay:10.37,2013-01-20 05:03:00,
2013-01-20 00:05:00,35.6,17.8,29.76,South,180,4.6,4.6,48,0.00,RA,,0.00,WeatherDisplay:10.37,2013-01-20 05:05:00,
2013-01-20 00:10:00,36.1,18.2,29.76,South,180,6.9,6.9,48,0.00,RA,,0.00,WeatherDisplay:10.37,2013-01-20 05:10:00,
2013-01-20 00:16:00,37.1,19.2,29.76,WNW,292,4.6,4.6,48,0.00,OVC,,0.00,WeatherDisplay:10.37,2013-01-20 05:16:00,
2013-01-20 00:22:00,37.9,19.9,27.28,South,180,5.9,5.9,48,0.00,OVC,,0.00,WeatherDisplay:10.37,2013-01-20 05:22:00,
2013-01-20 00:27:00,38.5,20.5,29.76,WNW,292,11.5,11.5,48,0.00,OVC,,0.00,WeatherDisplay:10.37,2013-01-20 05:27:00,
2013-01-20 00:32:00,38.9,20.8,29.76,SW,225,19.6,19.6,48,0.00,OVC,,0.00,WeatherDisplay:10.37,2013-01-20 05:32:00,
2013-01-20 00:37:00,39.0,21.0,29.76,ESE,112,14.4,14.4,48,0.00,OVC,,0.00,WeatherDisplay:10.37,2013-01-20 05:37:00,
2013-01-20 00:42:00,39.6,21.5,29.76,SSW,202,13.8,13.8,48,0.00,OVC,,0.00,WeatherDisplay:10.37,2013-01-20 05:42:00,
2013-01-20 00:47:00,40.0,21.9,29.76,SE,135,23.0,23.0,48,0.00,OVC,,0.00,WeatherDisplay:10.37,2013-01-20 05:47:00,
2013-01-20 00:52:00,40.0,21.9,27.28,SSW,202,11.5,11.5,48,0.00,OVC,,0.00,WeatherDisplay:10.37,2013-01-20 05:52:00,
2013-01-20 00:57:00,40.2,22.0,29.76,SSW,202,8.1,8.1,48,0.00,OVC,,0.00,WeatherDisplay:10.37,2013-01-20 05:57:00,
2013-01-20 01:02:00,40.3,17.3,29.72,SW,225,15.0,15.0,39,0.00,OVC,,0.00,WeatherDisplay:10.37,2013-01-20 06:02:00,
2013-01-20 01:07:00,40.4,21.7,29.72,SW,225,12.7,12.7,47,0.00,OVC,,0.00,WeatherDisplay:10.37,2013-01-20 06:07:00,
2013-01-20 01:12:00,40.4,21.2,29.72,NW,315,12.7,12.7,46,0.00,OVC,,0.00,WeatherDisplay:10.37,2013-01-20 06:12:00,
2013-01-20 01:17:00,40.6,21.4,29.72,SW,225,6.6,7.2,46,0.00,OVC,,0.00,WeatherDisplay:10.37,2013-01-20 06:17:00,
2013-01-20 01:22:00,40.6,17.5,29.72,SSW,202,9.2,9.2,39,0.00,OVC,,0.00,WeatherDisplay:10.37,2013-01-20 06:22:00,
2013-01-20 01:27:00,40.7,21.5,29.72,SSW,202,6.0,6.0,46,0.00,OVC,,0.00,WeatherDisplay:10.37,2013-01-20 06:27:00,
2013-01-20 01:32:00,40.5,21.3,29.72,South,180,8.1,8.1,46,0.00,OVC,,0.00,WeatherDisplay:10.37,2013-01-20 06:32:00,
2013-01-20 01:38:00,40.7,21.5,29.72,East,90,16.1,16.1,46,0.00,OVC,,0.00,WeatherDisplay:10.37,2013-01-20 06:38:00,
2013-01-20 01:43:00,41.1,20.8,27.28,West,270,8.1,8.1,44,0.00,OVC,,0.00,WeatherDisplay:10.37,2013-01-20 06:43:00,
2013-01-20 01:48:00,41.2,20.9,29.72,South,180,18.4,18.4,44,0.00,OVC,,0.00,WeatherDisplay:10.37,2013-01-20 06:48:00,
2013-01-20 01:53:00,41.3,18.2,29.72,West,270,23.0,23.0,39,0.00,OVC,,0.00,WeatherDisplay:10.37,2013-01-20 06:53:00,
2013-01-20 01:58:00,41.7,21.4,29.72,SW,225,23.8,23.8,44,0.00,OVC,,0.00,WeatherDisplay:10.37,2013-01-20 06:58:00,
2013-01-20 02:03:00,41.3,21.0,29.70,WNW,292,13.8,13.8,44,0.00,OVC,,0.00,WeatherDisplay:10.37,2013-01-20 07:03:00,
2013-01-20 02:08:00,41.1,20.8,29.70,West,270,13.8,13.8,44,0.00,OVC,,0.00,WeatherDisplay:10.37,2013-01-20 07:08:00,
2013-01-20 02:13:00,40.7,19.3,29.70,South,180,6.9,6.9,42,0.00,OVC,,0.00,WeatherDisplay:10.37,2013-01-20 07:13:00,
2013-01-20 02:18:00,39.9,19.8,29.70,SSW,202,6.9,6.9,44,0.00,OVC,,0.00,WeatherDisplay:10.37,2013-01-20 07:18:00,
2013-01-20 02:23:00,39.5,19.4,29.70,SSE,158,8.1,8.1,44,0.00,OVC,,0.00,WeatherDisplay:10.37,2013-01-20 07:23:00,
2013-01-20 02:28:00,39.1,19.0,29.70,SSE,158,4.6,4.6,44,0.00,OVC,,0.00,WeatherDisplay:10.37,2013-01-20 07:28:00,
2013-01-20 02:33:00,38.7,18.6,29.70,SE,135,6.9,6.9,44,0.00,OVC,,0.00,WeatherDisplay:10.37,2013-01-20 07:33:00,
2013-01-20 02:38:00,38.2,17.1,29.70,SSE,158,10.4,10.4,42,0.00,OVC,,0.00,WeatherDisplay:10.37,2013-01-20 07:38:00,
2013-01-20 02:43:00,38.4,17.3,29.70,East,90,3.5,3.5,42,0.00,OVC,,0.00,WeatherDisplay:10.37,2013-01-20 07:43:00,
2013-01-20 02:48:00,38.2,18.2,29.70,NW,315,5.8,5.8,44,0.00,OVC,,0.00,WeatherDisplay:10.37,2013-01-20 07:48:00,
2013-01-20 02:53:00,37.9,16.8,29.70,SSW,202,6.9,6.9,42,0.00,OVC,,0.00,WeatherDisplay:10.37,2013-01-20 07:53:00,
2013-01-20 02:58:00,37.2,17.2,29.70,SSW,202,6.9,6.9,44,0.00,OVC,,0.00,WeatherDisplay:10.37,2013-01-20 07:58:00,
2013-01-20 03:03:00,37.0,17.0,29.65,SE,135,5.8,5.8,44,0.00,BKN,,0.00,WeatherDisplay:10.37,2013-01-20 08:03:00,
2013-01-20 03:08:00,36.8,17.5,29.65,South,180,3.5,3.5,45,0.00,BKN,,0.00,WeatherDisplay:10.37,2013-01-20 08:08:00,
2013-01-20 03:13:00,36.6,17.8,27.28,ESE,112,16.1,16.1,46,0.00,BKN,,0.00,WeatherDisplay:10.37,2013-01-20 08:13:00,
2013-01-20 03:18:00,36.7,20.7,29.65,SSE,158,9.2,9.2,52,0.00,BKN,,0.00,WeatherDisplay:10.37,2013-01-20 08:18:00,
2013-01-20 03:23:00,36.7,17.8,29.65,South,180,7.3,7.3,46,0.00,BKN,,0.00,WeatherDisplay:10.37,2013-01-20 08:23:00,
2013-01-20 03:28:00,36.4,17.6,29.65,SE,135,9.2,9.2,46,0.00,BKN,,0.00,WeatherDisplay:10.37,2013-01-20 08:28:00,
2013-01-20 03:33:00,36.4,18.1,29.65,NE,45,5.8,5.8,47,0.00,BKN,,0.00,WeatherDisplay:10.37,2013-01-20 08:33:00,
2013-01-20 03:38:00,36.6,18.2,29.65,South,180,6.9,10.8,47,0.00,BKN,,0.00,WeatherDisplay:10.37,2013-01-20 08:38:00,
2013-01-20 03:43:00,37.3,18.9,27.28,SW,225,17.3,17.3,47,0.00,BKN,,0.00,WeatherDisplay:10.37,2013-01-20 08:43:00,
2013-01-20 03:48:00,37.0,18.6,29.65,ESE,112,6.9,6.9,47,0.00,BKN,,0.00,WeatherDisplay:10.37,2013-01-20 08:48:00,
2013-01-20 03:53:00,37.2,18.8,29.65,South,180,10.4,10.4,47,0.00,BKN,,0.00,WeatherDisplay:10.37,2013-01-20 08:53:00,
2013-01-20 03:58:00,37.2,21.2,29.65,South,180,6.9,6.9,52,0.00,BKN,,0.00,WeatherDisplay:10.37,2013-01-20 08:58:00,
2013-01-20 04:03:00,37.2,19.3,29.60,South,180,5.8,5.8,48,0.00,CLR,,0.00,WeatherDisplay:10.37,2013-01-20 09:03:00,
2013-01-20 04:08:00,37.3,17.3,29.60,East,90,4.6,4.6,44,0.00,CLR,,0.00,WeatherDisplay:10.37,2013-01-20 09:08:00,
2013-01-20 04:13:00,36.9,17.0,29.60,South,180,10.4,10.4,44,0.00,CLR,,0.00,WeatherDisplay:10.37,2013-01-20 09:13:00,
2013-01-20 04:18:00,37.2,17.2,29.60,NE,45,9.2,9.2,44,0.00,CLR,,0.00,WeatherDisplay:10.37,2013-01-20 09:18:00,
2013-01-20 04:23:00,37.3,19.4,29.60,SE,135,12.7,12.7,48,0.00,CLR,,0.00,WeatherDisplay:10.37,2013-01-20 09:23:00,
2013-01-20 04:28:00,37.1,17.1,29.60,SE,135,10.4,10.4,44,0.00,CLR,,0.00,WeatherDisplay:10.37,2013-01-20 09:28:00,
2013-01-20 04:33:00,37.2,19.3,29.60,South,180,13.8,13.8,48,0.00,CLR,,0.00,WeatherDisplay:10.37,2013-01-20 09:33:00,
2013-01-20 04:38:00,37.4,19.5,29.60,SSW,202,8.1,8.1,48,0.00,CLR,,0.00,WeatherDisplay:10.37,2013-01-20 09:38:00,
2013-01-20 04:43:00,37.0,17.1,29.60,SSW,202,6.9,6.9,44,0.00,CLR,,0.00,WeatherDisplay:10.37,2013-01-20 09:43:00,
2013-01-20 04:48:00,37.2,17.3,29.60,South,180,5.8,5.8,44,0.00,CLR,,0.00,WeatherDisplay:10.37,2013-01-20 09:48:00,
2013-01-20 04:53:00,37.1,19.2,29.60,SSW,202,6.9,6.9,48,0.00,CLR,,0.00,WeatherDisplay:10.37,2013-01-20 09:53:00,
2013-01-20 04:58:00,36.6,18.7,29.60,South,180,8.1,8.1,48,0.00,CLR,,0.00,WeatherDisplay:10.37,2013-01-20 09:58:00,
2013-01-20 05:03:00,36.5,18.6,29.57,South,180,6.9,6.9,48,0.00,CLR,,0.00,WeatherDisplay:10.37,2013-01-20 10:03:00,
2013-01-20 05:08:00,36.1,18.3,29.57,SSW,202,4.4,4.4,48,0.00,CLR,,0.00,WeatherDisplay:10.37,2013-01-20 10:08:00,
2013-01-20 05:13:00,35.6,17.8,27.28,WSW,248,4.6,4.6,48,0.00,CLR,,0.00,WeatherDisplay:10.37,2013-01-20 10:13:00,
2013-01-20 05:18:00,35.3,13.4,29.57,SSE,158,5.8,5.8,40,0.00,CLR,,0.00,WeatherDisplay:10.37,2013-01-20 10:18:00,
2013-01-20 05:23:00,35.2,13.3,29.57,SSW,202,5.8,5.8,40,0.00,CLR,,0.00,WeatherDisplay:10.37,2013-01-20 10:23:00,
2013-01-20 05:28:00,35.0,13.1,29.57,SW,225,8.1,8.1,40,0.00,CLR,,0.00,WeatherDisplay:10.37,2013-01-20 10:28:00,
2013-01-20 05:33:00,34.9,13.0,29.57,South,180,5.9,5.9,40,0.00,CLR,,0.00,WeatherDisplay:10.37,2013-01-20 10:33:00,
2013-01-20 05:38:00,35.0,13.1,29.57,SSW,202,9.2,9.2,40,0.00,CLR,,0.00,WeatherDisplay:10.37,2013-01-20 10:38:00,
2013-01-20 05:43:00,35.3,13.4,27.28,ESE,112,11.5,11.5,40,0.00,CLR,,0.00,WeatherDisplay:10.37,2013-01-20 10:43:00,
2013-01-20 05:48:00,35.9,12.7,29.57,SSW,202,11.5,11.5,38,0.00,CLR,,0.00,WeatherDisplay:10.37,2013-01-20 10:48:00,
2013-01-20 05:53:00,35.9,13.9,29.57,South,180,12.7,12.7,40,0.00,CLR,,0.00,WeatherDisplay:10.37,2013-01-20 10:53:00,
2013-01-20 05:58:00,36.1,14.1,29.57,WSW,248,12.7,12.7,40,0.00,CLR,,0.00,WeatherDisplay:10.37,2013-01-20 10:58:00,
2013-01-20 06:03:00,36.3,14.2,29.53,SE,135,12.7,12.7,40,0.00,CLR,,0.00,WeatherDisplay:10.37,2013-01-20 11:03:00,
2013-01-20 06:08:00,36.6,14.5,29.53,South,180,12.7,12.7,40,0.00,CLR,,0.00,WeatherDisplay:10.37,2013-01-20 11:08:00,
2013-01-20 06:13:00,36.4,14.4,27.28,SW,225,6.9,6.9,40,0.00,CLR,,0.00,WeatherDisplay:10.37,2013-01-20 11:13:00,
2013-01-20 06:18:00,36.4,14.4,29.53,SW,225,13.8,13.8,40,0.00,CLR,,0.00,WeatherDisplay:10.37,2013-01-20 11:18:00,
2013-01-20 06:23:00,36.3,13.1,29.53,South,180,9.2,9.2,38,0.00,CLR,,0.00,WeatherDisplay:10.37,2013-01-20 11:23:00,
2013-01-20 06:28:00,36.4,14.4,29.53,SW,225,10.4,10.4,40,0.00,CLR,,0.00,WeatherDisplay:10.37,2013-01-20 11:28:00,
2013-01-20 06:33:00,36.1,14.1,29.53,WSW,248,9.9,9.9,40,0.00,CLR,,0.00,WeatherDisplay:10.37,2013-01-20 11:33:00,
2013-01-20 06:38:00,36.4,14.4,29.53,NW,315,16.1,16.1,40,0.00,CLR,,0.00,WeatherDisplay:10.37,2013-01-20 11:38:00,
2013-01-20 06:43:00,36.6,14.5,27.28,South,180,21.9,21.9,40,0.00,CLR,,0.00,WeatherDisplay:10.37,2013-01-20 11:43:00,
2013-01-20 06:48:00,36.6,13.3,29.53,SSW,202,17.3,17.3,38,0.00,CLR,,0.00,WeatherDisplay:10.37,2013-01-20 11:48:00,
2013-01-20 06:53:00,36.5,14.4,29.53,South,180,11.5,11.5,40,0.00,CLR,,0.00,WeatherDisplay:10.37,2013-01-20 11:53:00,
2013-01-20 06:59:00,36.3,14.3,29.53,SSW,202,11.5,11.5,40,0.00,CLR,,0.00,WeatherDisplay:10.37,2013-01-20 11:59:00,
2013-01-20 07:04:00,36.3,14.2,29.50,SSW,202,5.8,5.8,40,0.00,CLR,,0.00,WeatherDisplay:10.37,2013-01-20 12:04:00,
2013-01-20 07:10:00,36.2,14.1,29.50,SW,225,10.4,10.4,40,0.00,CLR,,0.00,WeatherDisplay:10.37,2013-01-20 12:10:00,
2013-01-20 07:15:00,36.1,14.1,29.50,NNE,22,10.4,10.4,40,0.00,CLR,,0.00,WeatherDisplay:10.37,2013-01-20 12:15:00,
2013-01-20 07:20:00,36.3,14.2,29.50,SW,225,18.4,18.4,40,0.00,CLR,,0.00,WeatherDisplay:10.37,2013-01-20 12:20:00,
2013-01-20 07:25:00,36.4,14.3,29.50,SSW,202,11.5,11.5,40,0.00,CLR,,0.00,WeatherDisplay:10.37,2013-01-20 12:25:00,
2013-01-20 07:30:00,36.0,14.0,29.50,SSW,202,10.4,10.4,40,0.00,CLR,,0.00,WeatherDisplay:10.37,2013-01-20 12:30:00,
2013-01-20 07:36:00,36.2,14.2,29.50,South,180,9.2,9.2,40,0.00,CLR,,0.00,WeatherDisplay:10.37,2013-01-20 12:36:00,
2013-01-20 07:42:00,36.2,14.2,29.50,SW,225,13.8,13.8,40,0.00,CLR,,0.00,WeatherDisplay:10.37,2013-01-20 12:42:00,
2013-01-20 07:47:00,36.4,14.9,29.50,NE,45,17.3,17.3,41,0.00,CLR,,0.00,WeatherDisplay:10.37,2013-01-20 12:47:00,
2013-01-20 07:52:00,36.7,14.6,27.28,South,180,8.1,8.1,40,0.00,CLR,,0.00,WeatherDisplay:10.37,2013-01-20 12:52:00,
2013-01-20 07:57:00,37.2,15.0,29.50,South,180,9.2,9.2,40,0.00,CLR,,0.00,WeatherDisplay:10.37,2013-01-20 12:57:00,
2013-01-20 08:02:00,37.3,15.2,29.47,SW,225,15.0,15.0,40,0.00,FEW,,0.00,WeatherDisplay:10.37,2013-01-20 13:02:00,
2013-01-20 08:07:00,37.7,16.1,29.47,SW,225,13.8,13.8,41,0.00,FEW,,0.00,WeatherDisplay:10.37,2013-01-20 13:07:00,
2013-01-20 08:12:00,38.3,16.6,29.47,South,180,16.1,16.1,41,0.00,FEW,,0.00,WeatherDisplay:10.37,2013-01-20 13:12:00,
2013-01-20 08:17:00,39.1,19.6,29.47,WSW,248,4.6,4.6,45,0.00,FEW,,0.00,WeatherDisplay:10.37,2013-01-20 13:17:00,
2013-01-20 08:22:00,39.7,17.8,27.28,SSW,202,11.5,11.5,41,0.00,FEW,,0.00,WeatherDisplay:10.37,2013-01-20 13:22:00,
2013-01-20 08:28:00,40.0,20.4,29.47,SSW,202,21.9,21.9,45,0.00,FEW,,0.00,WeatherDisplay:10.37,2013-01-20 13:28:00,
2013-01-20 08:33:00,40.8,18.9,29.47,West,270,11.5,11.5,41,0.00,FEW,,0.00,WeatherDisplay:10.37,2013-01-20 13:33:00,
2013-01-20 08:38:00,41.3,19.3,29.47,ENE,68,24.2,24.2,41,0.00,FEW,,0.00,WeatherDisplay:10.37,2013-01-20 13:38:00,
2013-01-20 08:43:00,41.8,19.8,27.28,SSE,158,20.7,20.7,41,0.00,FEW,,0.00,WeatherDisplay:10.37,2013-01-20 13:43:00,
2013-01-20 08:48:00,41.9,19.9,29.47,SE,135,27.6,27.6,41,0.00,FEW,,0.00,WeatherDisplay:10.37,2013-01-20 13:48:00,
2013-01-20 08:53:00,42.1,22.2,29.47,SE,135,16.1,16.1,45,0.00,FEW,,0.00,WeatherDisplay:10.37,2013-01-20 13:53:00,
2013-01-20 08:58:00,42.1,20.1,29.47,NW,315,11.5,11.5,41,0.00,FEW,,0.00,WeatherDisplay:10.37,2013-01-20 13:58:00,
2013-01-20 09:03:00,42.3,20.8,29.47,West,270,22.0,22.0,42,0.00,OVC,,0.00,WeatherDisplay:10.37,2013-01-20 14:03:00,
2013-01-20 09:08:00,42.4,20.9,29.47,West,270,19.6,19.6,42,0.00,OVC,,0.00,WeatherDisplay:10.37,2013-01-20 14:08:00,
2013-01-20 09:13:00,42.5,20.4,27.28,NNW,338,23.0,23.0,41,0.00,OVC,,0.00,WeatherDisplay:10.37,2013-01-20 14:13:00,
2013-01-20 09:18:00,42.7,20.6,29.47,SE,135,11.6,11.6,41,0.00,OVC,,0.00,WeatherDisplay:10.37,2013-01-20 14:18:00,
2013-01-20 09:23:00,42.6,21.1,29.47,South,180,11.7,11.7,42,0.00,OVC,,0.00,WeatherDisplay:10.37,2013-01-20 14:23:00,
2013-01-20 09:28:00,42.5,20.4,29.47,SE,135,15.0,15.0,41,0.00,OVC,,0.00,WeatherDisplay:10.37,2013-01-20 14:28:00,
2013-01-20 09:33:00,42.4,20.3,29.47,NW,315,35.7,35.7,41,0.00,OVC,,0.00,WeatherDisplay:10.37,2013-01-20 14:33:00,
2013-01-20 09:38:00,42.6,20.5,29.47,West,270,25.9,25.9,41,0.00,OVC,,0.00,WeatherDisplay:10.37,2013-01-20 14:38:00,
2013-01-20 09:43:00,42.6,20.5,29.47,West,270,8.1,8.1,41,0.00,OVC,,0.00,WeatherDisplay:10.37,2013-01-20 14:43:00,
2013-01-20 09:48:00,42.4,20.9,29.47,SE,135,26.5,26.5,42,0.00,OVC,,0.00,WeatherDisplay:10.37,2013-01-20 14:48:00,
2013-01-20 09:53:00,41.5,19.5,29.47,WNW,292,31.1,31.1,41,0.00,OVC,,0.00,WeatherDisplay:10.37,2013-01-20 14:53:00,
2013-01-20 09:58:00,41.0,19.1,29.47,ESE,112,11.5,11.5,41,0.00,OVC,,0.00,WeatherDisplay:10.37,2013-01-20 14:58:00,
2013-01-20 10:03:00,40.3,18.4,29.48,West,270,23.0,23.0,41,0.00,OVC,,0.00,WeatherDisplay:10.37,2013-01-20 15:03:00,
2013-01-20 10:08:00,39.4,17.6,29.48,South,180,38.0,38.0,41,0.00,OVC,,0.00,WeatherDisplay:10.37,2013-01-20 15:08:00,
2013-01-20 10:13:00,38.3,16.6,27.28,West,270,18.4,18.4,41,0.00,OVC,,0.00,WeatherDisplay:10.37,2013-01-20 15:13:00,
2013-01-20 10:18:00,36.8,15.3,29.48,NE,45,17.3,17.3,41,0.00,OVC,,0.00,WeatherDisplay:10.37,2013-01-20 15:18:00,
2013-01-20 10:23:00,35.8,14.4,29.48,ESE,112,26.5,26.5,41,0.00,OVC,,0.00,WeatherDisplay:10.37,2013-01-20 15:23:00,
2013-01-20 10:28:00,35.2,13.8,29.48,NW,315,21.9,21.9,41,0.00,OVC,,0.00,WeatherDisplay:10.37,2013-01-20 15:28:00,
2013-01-20 10:33:00,34.6,13.3,29.48,SSW,202,18.4,18.4,41,0.00,OVC,,0.00,WeatherDisplay:10.37,2013-01-20 15:33:00,
2013-01-20 10:38:00,34.6,15.4,29.48,WNW,292,15.0,15.0,45,0.00,OVC,,0.00,WeatherDisplay:10.37,2013-01-20 15:38:00,
2013-01-20 10:43:00,34.1,12.9,27.28,North,360,20.7,20.7,41,0.00,OVC,,0.00,WeatherDisplay:10.37,2013-01-20 15:43:00,
2013-01-20 10:48:00,33.6,12.4,29.48,NNW,338,24.2,24.2,41,0.00,OVC,,0.00,WeatherDisplay:10.37,2013-01-20 15:48:00,
2013-01-20 10:53:00,33.2,12.0,29.48,NW,315,15.2,15.2,41,0.00,OVC,,0.00,WeatherDisplay:10.37,2013-01-20 15:53:00,
2013-01-20 10:58:00,32.9,11.7,29.48,NE,45,17.3,17.3,41,0.00,OVC,,0.00,WeatherDisplay:10.37,2013-01-20 15:58:00,
2013-01-20 11:03:00,32.8,11.6,29.56,ENE,68,19.6,19.6,41,0.00,BKN,,0.00,WeatherDisplay:10.37,2013-01-20 16:03:00,
2013-01-20 11:08:00,33.1,21.8,29.56,West,270,33.4,33.4,63,0.00,BKN,,0.00,WeatherDisplay:10.37,2013-01-20 16:08:00,
2013-01-20 11:13:00,33.8,22.9,27.28,SE,135,19.6,19.6,64,0.00,BKN,,0.00,WeatherDisplay:10.37,2013-01-20 16:13:00,
2013-01-20 11:18:00,34.1,18.7,29.56,SW,225,27.6,27.6,53,0.00,BKN,,0.00,WeatherDisplay:10.37,2013-01-20 16:18:00,
2013-01-20 11:23:00,34.4,25.3,29.56,NNE,22,31.1,31.1,69,0.00,BKN,,0.00,WeatherDisplay:10.37,2013-01-20 16:23:00,
2013-01-20 11:28:00,34.3,25.2,29.56,SSE,158,29.9,29.9,69,0.00,OVC,,0.00,WeatherDisplay:10.37,2013-01-20 16:28:00,
2013-01-20 11:33:00,34.8,31.3,29.56,ESE,112,19.6,19.6,87,0.00,OVC,,0.00,WeatherDisplay:10.37,2013-01-20 16:33:00,
2013-01-20 11:38:00,35.2,32.0,29.56,SE,135,33.4,33.4,88,0.00,OVC,,0.00,WeatherDisplay:10.37,2013-01-20 16:38:00,
2013-01-20 11:43:00,35.6,32.4,27.28,WNW,292,23.0,23.0,88,0.00,OVC,,0.00,WeatherDisplay:10.37,2013-01-20 16:43:00,
2013-01-20 11:48:00,35.7,32.5,29.56,East,90,19.6,19.6,88,0.00,OVC,,0.00,WeatherDisplay:10.37,2013-01-20 16:48:00,
2013-01-20 11:53:00,35.5,26.4,29.56,NNE,22,26.5,26.5,69,0.00,OVC,,0.00,WeatherDisplay:10.37,2013-01-20 16:53:00,
2013-01-20 11:58:00,35.8,28.7,29.56,SW,225,35.7,35.7,75,0.00,OVC,,0.00,WeatherDisplay:10.37,2013-01-20 16:58:00,
2013-01-20 12:03:00,36.6,29.4,29.54,West,270,19.6,19.6,75,0.00,SCT,,0.00,WeatherDisplay:10.37,2013-01-20 17:03:00,
2013-01-20 12:08:00,37.2,15.1,29.54,NW,315,27.6,27.6,40,0.00,SCT,,0.00,WeatherDisplay:10.37,2013-01-20 17:08:00,
2013-01-20 12:13:00,37.8,19.8,27.28,NNE,22,42.6,42.6,48,0.00,SCT,,0.00,WeatherDisplay:10.37,2013-01-20 17:13:00,
2013-01-20 12:18:00,38.3,20.3,29.54,WNW,292,24.2,24.2,48,0.00,SCT,,0.00,WeatherDisplay:10.37,2013-01-20 17:18:00,
2013-01-20 12:23:00,38.0,20.0,29.54,North,360,44.9,44.9,48,0.00,SCT,,0.00,WeatherDisplay:10.37,2013-01-20 17:23:00,
2013-01-20 12:29:00,36.4,18.6,29.54,SE,135,24.2,24.2,48,0.00,SCT,,0.00,WeatherDisplay:10.37,2013-01-20 17:29:00,
2013-01-20 12:34:00,36.6,18.7,29.54,ENE,68,33.4,33.4,48,0.00,SCT,,0.00,WeatherDisplay:10.37,2013-01-20 17:34:00,
2013-01-20 12:39:00,36.5,18.6,29.54,NW,315,27.6,27.6,48,0.00,SCT,,0.00,WeatherDisplay:10.37,2013-01-20 17:39:00,
2013-01-20 12:44:00,34.8,17.0,29.54,NW,315,35.6,35.6,48,0.00,SCT,,0.00,WeatherDisplay:10.37,2013-01-20 17:44:00,
2013-01-20 12:50:00,34.1,16.4,29.54,NW,315,23.0,23.0,48,0.00,SCT,,0.00,WeatherDisplay:10.37,2013-01-20 17:50:00,
2013-01-20 12:55:00,34.2,16.5,29.54,NNE,22,27.9,27.9,48,0.00,SCT,,0.00,WeatherDisplay:10.37,2013-01-20 17:55:00,
2013-01-20 13:00:00,34.3,16.6,29.54,WNW,292,35.7,35.7,48,0.00,SCT,,0.00,WeatherDisplay:10.37,2013-01-20 18:00:00,
2013-01-20 13:05:00,34.2,12.3,29.57,West,270,31.1,31.1,40,0.00,CLR,,0.00,WeatherDisplay:10.37,2013-01-20 18:05:00,
2013-01-20 13:10:00,34.8,12.9,29.57,NNW,338,29.9,29.9,40,0.00,CLR,,0.00,WeatherDisplay:10.37,2013-01-20 18:10:00,
2013-01-20 13:15:00,35.1,13.2,29.57,East,90,15.0,15.0,40,0.00,CLR,,0.00,WeatherDisplay:10.37,2013-01-20 18:15:00,
2013-01-20 13:20:00,34.5,12.7,29.57,NE,45,26.5,26.5,40,0.00,CLR,,0.00,WeatherDisplay:10.37,2013-01-20 18:20:00,
2013-01-20 13:26:00,35.0,13.1,29.57,WNW,292,13.8,13.8,40,0.00,CLR,,0.00,WeatherDisplay:10.37,2013-01-20 18:26:00,
2013-01-20 13:31:00,35.4,13.4,27.28,NNE,22,21.9,21.9,40,0.00,CLR,,0.00,WeatherDisplay:10.37,2013-01-20 18:31:00,
2013-01-20 13:36:00,35.2,13.2,29.57,South,180,20.7,20.7,40,0.00,CLR,,0.00,WeatherDisplay:10.37,2013-01-20 18:36:00,
2013-01-20 13:41:00,34.8,12.9,29.57,NE,45,28.8,28.8,40,0.00,CLR,,0.00,WeatherDisplay:10.37,2013-01-20 18:41:00,
2013-01-20 13:46:00,34.7,12.8,29.57,WNW,292,26.5,26.5,40,0.00,CLR,,0.00,WeatherDisplay:10.37,2013-01-20 18:46:00,
2013-01-20 13:51:00,33.7,11.9,29.57,West,270,33.4,33.4,40,0.00,CLR,,0.00,WeatherDisplay:10.37,2013-01-20 18:51:00,
2013-01-20 13:56:00,33.4,11.6,29.57,NW,315,21.3,21.3,40,0.00,CLR,,0.00,WeatherDisplay:10.37,2013-01-20 18:56:00,
2013-01-20 14:01:00,32.9,11.2,29.57,NNE,22,26.7,26.7,40,0.00,CLR,,0.00,WeatherDisplay:10.37,2013-01-20 19:01:00,
2013-01-20 14:06:00,32.3,8.9,29.60,NNE,22,27.6,27.6,37,0.00,FEW,,0.00,WeatherDisplay:10.37,2013-01-20 19:06:00,
2013-01-20 14:11:00,31.7,8.3,29.60,NNW,338,32.2,32.2,37,0.00,FEW,,0.00,WeatherDisplay:10.37,2013-01-20 19:11:00,
2013-01-20 14:16:00,31.7,8.3,29.60,North,360,31.1,31.1,37,0.00,FEW,,0.00,WeatherDisplay:10.37,2013-01-20 19:16:00,
2013-01-20 14:21:00,31.5,8.2,29.60,SSW,202,21.9,21.9,37,0.00,FEW,,0.00,WeatherDisplay:10.37,2013-01-20 19:21:00,
2013-01-20 14:26:00,31.6,8.3,29.60,NNW,338,27.6,27.6,37,0.00,FEW,,0.00,WeatherDisplay:10.37,2013-01-20 19:26:00,
2013-01-20 14:31:00,31.6,8.3,29.60,NW,315,25.3,25.3,37,0.00,FEW,,0.00,WeatherDisplay:10.37,2013-01-20 19:31:00,
2013-01-20 14:36:00,31.7,8.3,29.60,South,180,24.2,24.2,37,0.00,FEW,,0.00,WeatherDisplay:10.37,2013-01-20 19:36:00,
2013-01-20 14:41:00,31.5,8.2,29.60,NW,315,26.4,26.4,37,0.00,FEW,,0.00,WeatherDisplay:10.37,2013-01-20 19:41:00,
2013-01-20 14:46:00,30.8,7.6,29.60,NW,315,29.9,29.9,37,0.00,FEW,,0.00,WeatherDisplay:10.37,2013-01-20 19:46:00,
2013-01-20 14:51:00,30.7,7.5,29.60,WNW,292,20.9,20.9,37,0.00,FEW,,0.00,WeatherDisplay:10.37,2013-01-20 19:51:00,
2013-01-20 14:57:00,30.4,7.2,29.60,WNW,292,27.9,27.9,37,0.00,FEW,,0.00,WeatherDisplay:10.37,2013-01-20 19:57:00,
2013-01-20 15:02:00,30.2,8.7,29.64,NW,315,26.5,26.5,40,0.00,CLR,,0.00,WeatherDisplay:10.37,2013-01-20 20:02:00,
2013-01-20 15:07:00,29.6,8.2,29.64,WNW,292,28.8,28.8,40,0.00,CLR,,0.00,WeatherDisplay:10.37,2013-01-20 20:07:00,
2013-01-20 15:12:00,29.6,8.2,29.64,SE,135,12.7,12.7,40,0.00,CLR,,0.00,WeatherDisplay:10.37,2013-01-20 20:12:00,
2013-01-20 15:17:00,29.7,8.3,29.64,West,270,23.0,23.0,40,0.00,CLR,,0.00,WeatherDisplay:10.37,2013-01-20 20:17:00,
2013-01-20 15:22:00,29.9,8.5,27.28,NW,315,21.8,21.8,40,0.00,CLR,,0.00,WeatherDisplay:10.37,2013-01-20 20:22:00,
2013-01-20 15:27:00,30.0,8.6,29.64,ENE,68,17.3,17.3,40,0.00,CLR,,0.00,WeatherDisplay:10.37,2013-01-20 20:27:00,
2013-01-20 15:32:00,29.5,8.1,29.64,SSE,158,23.0,23.0,40,0.00,CLR,,0.00,WeatherDisplay:10.37,2013-01-20 20:32:00,
2013-01-20 15:37:00,29.4,8.0,29.64,NNW,338,48.3,48.3,40,0.00,CLR,,0.00,WeatherDisplay:10.37,2013-01-20 20:37:00,
2013-01-20 15:42:00,29.0,7.7,29.64,North,360,25.3,25.3,40,0.00,CLR,,0.00,WeatherDisplay:10.37,2013-01-20 20:42:00,
2013-01-20 15:47:00,28.7,7.4,29.64,NW,315,23.5,23.5,40,0.00,CLR,,0.00,WeatherDisplay:10.37,2013-01-20 20:47:00,
2013-01-20 15:52:00,27.6,6.4,29.64,NW,315,40.3,40.3,40,0.00,CLR,,0.00,WeatherDisplay:10.37,2013-01-20 20:52:00,
2013-01-20 15:57:00,27.6,15.5,29.64,NW,315,30.8,30.8,60,0.00,CLR,,0.00,WeatherDisplay:10.37,2013-01-20 20:57:00,
2013-01-20 16:03:00,27.1,25.9,29.72,NW,315,34.0,34.0,95,0.00,BKN,,0.00,WeatherDisplay:10.37,2013-01-20 21:03:00,
2013-01-20 16:08:00,26.0,24.8,29.72,North,360,29.7,29.7,95,0.00,BKN,,0.00,WeatherDisplay:10.37,2013-01-20 21:08:00,
2013-01-20 16:13:00,25.5,7.5,29.72,WNW,292,26.4,26.4,46,0.00,BKN,,0.00,WeatherDisplay:10.37,2013-01-20 21:13:00,
2013-01-20 16:18:00,25.3,10.1,29.72,NW,315,26.5,26.5,52,0.00,BKN,,0.00,WeatherDisplay:10.37,2013-01-20 21:18:00,
2013-01-20 16:24:00,25.3,7.3,29.72,West,270,19.6,19.6,46,0.00,BKN,,0.00,WeatherDisplay:10.37,2013-01-20 21:24:00,
2013-01-20 16:29:00,25.2,9.1,29.72,NW,315,44.9,44.9,50,0.00,BKN,,0.00,WeatherDisplay:10.37,2013-01-20 21:29:00,
2013-01-20 16:34:00,25.3,9.2,29.72,South,180,25.3,25.3,50,0.00,BKN,,0.00,WeatherDisplay:10.37,2013-01-20 21:34:00,
2013-01-20 16:39:00,25.3,9.2,29.72,West,270,41.4,41.4,50,0.00,BKN,,0.00,WeatherDisplay:10.37,2013-01-20 21:39:00,
2013-01-20 16:44:00,25.0,8.9,29.72,West,270,32.6,32.6,50,0.00,BKN,,0.00,WeatherDisplay:10.37,2013-01-20 21:44:00,
2013-01-20 16:49:00,24.9,8.8,29.72,NW,315,49.5,49.5,50,0.00,BKN,,0.00,WeatherDisplay:10.37,2013-01-20 21:49:00,
2013-01-20 16:54:00,24.9,8.8,29.72,NW,315,31.1,31.1,50,0.00,BKN,,0.00,WeatherDisplay:10.37,2013-01-20 21:54:00,
2013-01-20 16:59:00,24.5,8.5,29.72,SE,135,26.5,26.5,50,0.00,BKN,,0.00,WeatherDisplay:10.37,2013-01-20 21:59:00,
2013-01-20 17:04:00,24.4,4.6,29.75,SSW,202,18.7,18.7,42,0.00,SCT,,0.00,WeatherDisplay:10.37,2013-01-20 22:04:00,
2013-01-20 17:09:00,24.1,7.2,29.75,East,90,31.1,31.1,48,0.00,SCT,,0.00,WeatherDisplay:10.37,2013-01-20 22:09:00,
2013-01-20 17:14:00,24.1,7.2,29.75,South,180,23.0,23.0,48,0.00,SCT,,0.00,WeatherDisplay:10.37,2013-01-20 22:14:00,
2013-01-20 17:19:00,23.9,7.0,29.75,NNE,22,34.9,34.9,48,0.00,SCT,,0.00,WeatherDisplay:10.37,2013-01-20 22:19:00,
2013-01-20 17:24:00,23.9,4.1,29.75,North,360,31.1,31.1,42,0.00,SCT,,0.00,WeatherDisplay:10.37,2013-01-20 22:24:00,
2013-01-20 17:29:00,23.8,6.5,29.75,East,90,24.2,24.2,47,0.00,SCT,,0.00,WeatherDisplay:10.37,2013-01-20 22:29:00,
2013-01-20 17:34:00,23.8,6.0,29.75,WNW,292,25.3,25.3,46,0.00,SCT,,0.00,WeatherDisplay:10.37,2013-01-20 22:34:00,
2013-01-20 17:39:00,23.8,6.0,29.75,SE,135,17.3,17.3,46,0.00,SCT,,0.00,WeatherDisplay:10.37,2013-01-20 22:39:00,
2013-01-20 17:45:00,23.6,5.8,29.75,WNW,292,12.4,12.4,46,0.00,SCT,,0.00,WeatherDisplay:10.37,2013-01-20 22:45:00,
2013-01-20 17:51:00,23.6,3.8,29.75,NW,315,19.6,19.6,42,0.00,SCT,,0.00,WeatherDisplay:10.37,2013-01-20 22:51:00,
2013-01-20 17:56:00,23.4,5.6,29.75,WNW,292,35.2,35.2,46,0.00,SCT,,0.00,WeatherDisplay:10.37,2013-01-20 22:56:00,
2013-01-20 18:01:00,23.3,5.5,29.75,WNW,292,24.2,24.2,46,0.00,SCT,,0.00,WeatherDisplay:10.37,2013-01-20 23:01:00,
2013-01-20 18:06:00,23.4,5.1,29.76,West,270,27.6,27.6,45,0.00,BKN,,0.00,WeatherDisplay:10.37,2013-01-20 23:06:00,
2013-01-20 18:11:00,23.3,2.0,29.76,North,360,21.9,21.9,39,0.00,BKN,,0.00,WeatherDisplay:10.37,2013-01-20 23:11:00,
2013-01-20 18:16:00,23.4,4.7,29.76,West,270,31.1,31.1,44,0.00,BKN,,0.00,WeatherDisplay:10.37,2013-01-20 23:16:00,
2013-01-20 18:21:00,23.3,2.0,29.76,South,180,20.7,20.7,39,0.00,BKN,,0.00,WeatherDisplay:10.37,2013-01-20 23:21:00,
2013-01-20 18:26:00,23.6,4.9,29.76,WNW,292,29.3,29.3,44,0.00,BKN,,0.00,WeatherDisplay:10.37,2013-01-20 23:26:00,
2013-01-20 18:31:00,23.8,5.0,27.28,South,180,23.0,23.0,44,0.00,BKN,,0.00,WeatherDisplay:10.37,2013-01-20 23:31:00,
2013-01-20 18:36:00,23.8,5.0,29.76,West,270,34.5,34.5,44,0.00,BKN,,0.00,WeatherDisplay:10.37,2013-01-20 23:36:00,
2013-01-20 18:41:00,23.8,5.1,29.76,ESE,112,16.1,16.1,44,0.00,BKN,,0.00,WeatherDisplay:10.37,2013-01-20 23:41:00,
2013-01-20 18:46:00,23.7,4.9,29.76,NE,45,17.3,17.3,44,0.00,BKN,,0.00,WeatherDisplay:10.37,2013-01-20 23:46:00,
2013-01-20 18:51:00,23.6,2.2,29.76,NNW,338,12.7,12.7,39,0.00,BKN,,0.00,WeatherDisplay:10.37,2013-01-20 23:51:00,
2013-01-20 18:57:00,23.3,4.6,29.76,NW,315,23.0,23.0,44,0.00,BKN,,0.00,WeatherDisplay:10.37,2013-01-20 23:57:00,
2013-01-20 19:02:00,23.1,4.4,29.79,NNW,338,28.8,28.8,44,0.00,BKN,,0.00,WeatherDisplay:10.37,2013-01-21 00:02:00,
2013-01-20 19:07:00,22.6,3.9,29.79,West,270,16.1,16.1,44,0.00,BKN,,0.00,WeatherDisplay:10.37,2013-01-21 00:07:00,
2013-01-20 19:12:00,22.8,4.1,29.79,NNW,338,19.6,19.6,44,0.00,BKN,,0.00,WeatherDisplay:10.37,2013-01-21 00:12:00,
2013-01-20 19:17:00,22.5,6.2,29.79,WNW,292,21.9,21.9,49,0.00,BKN,,0.00,WeatherDisplay:10.37,2013-01-21 00:17:00,
2013-01-20 19:23:00,22.2,5.9,29.79,North,360,40.3,40.3,49,0.00,BKN,,0.00,WeatherDisplay:10.37,2013-01-21 00:23:00,
2013-01-20 19:28:00,22.1,3.5,29.79,NW,315,21.9,21.9,44,0.00,BKN,,0.00,WeatherDisplay:10.37,2013-01-21 00:28:00,
2013-01-20 19:33:00,22.0,5.8,29.79,ENE,68,26.5,26.5,49,0.00,BKN,,0.00,WeatherDisplay:10.37,2013-01-21 00:33:00,
2013-01-20 19:38:00,22.0,3.4,29.79,NW,315,23.0,23.0,44,0.00,BKN,,0.00,WeatherDisplay:10.37,2013-01-21 00:38:00,
2013-01-20 19:43:00,21.6,3.0,27.28,NW,315,25.3,25.3,44,0.00,BKN,,0.00,WeatherDisplay:10.37,2013-01-21 00:43:00,
2013-01-20 19:48:00,21.3,2.8,29.79,NW,315,15.0,15.0,44,0.00,BKN,,0.00,WeatherDisplay:10.37,2013-01-21 00:48:00,
2013-01-20 19:53:00,20.9,2.3,29.79,NW,315,24.2,24.2,44,0.00,BKN,,0.00,WeatherDisplay:10.37,2013-01-21 00:53:00,
2013-01-20 19:58:00,20.6,4.5,29.79,WNW,292,35.1,35.1,49,0.00,BKN,,0.00,WeatherDisplay:10.37,2013-01-21 00:58:00,
2013-01-20 20:03:00,20.6,-1.0,29.86,NW,315,39.2,39.2,38,0.00,FEW,,0.00,WeatherDisplay:10.37,2013-01-21 01:03:00,
2013-01-20 20:08:00,20.5,2.0,29.86,NW,315,24.2,24.2,44,0.00,FEW,,0.00,WeatherDisplay:10.37,2013-01-21 01:08:00,
2013-01-20 20:13:00,20.5,2.0,27.28,SSW,202,19.6,19.6,44,0.00,FEW,,0.00,WeatherDisplay:10.37,2013-01-21 01:13:00,
2013-01-20 20:18:00,20.3,1.8,29.86,WNW,292,32.2,32.2,44,0.00,FEW,,0.00,WeatherDisplay:10.37,2013-01-21 01:18:00,
2013-01-20 20:23:00,20.2,1.7,29.86,North,360,32.2,32.2,44,0.00,FEW,,0.00,WeatherDisplay:10.37,2013-01-21 01:23:00,
2013-01-20 20:28:00,20.2,-1.4,29.86,WSW,248,23.0,23.0,38,0.00,FEW,,0.00,WeatherDisplay:10.37,2013-01-21 01:28:00,
2013-01-20 20:33:00,20.0,1.5,29.86,WNW,292,46.0,46.0,44,0.00,FEW,,0.00,WeatherDisplay:10.37,2013-01-21 01:33:00,
2013-01-20 20:38:00,19.8,-1.8,29.86,NE,45,36.8,36.8,38,0.00,FEW,,0.00,WeatherDisplay:10.37,2013-01-21 01:38:00,
2013-01-20 20:43:00,19.9,-1.7,29.86,WSW,248,40.3,40.3,38,0.00,FEW,,0.00,WeatherDisplay:10.37,2013-01-21 01:43:00,
2013-01-20 20:48:00,19.5,0.1,29.86,ENE,68,21.9,21.9,42,0.00,FEW,,0.00,WeatherDisplay:10.37,2013-01-21 01:48:00,
2013-01-20 20:53:00,18.9,-0.5,29.86,NNW,338,31.1,31.1,42,0.00,FEW,,0.00,WeatherDisplay:10.37,2013-01-21 01:53:00,
2013-01-20 20:58:00,18.9,-0.5,29.86,NW,315,27.6,27.6,42,0.00,FEW,,0.00,WeatherDisplay:10.37,2013-01-21 01:58:00,
2013-01-20 21:04:00,18.8,-1.0,29.86,NW,315,21.9,21.9,41,0.00,BKN,,0.00,WeatherDisplay:10.37,2013-01-21 02:04:00,
2013-01-20 21:09:00,19.0,-0.9,29.86,WNW,292,20.7,20.7,41,0.00,BKN,,0.00,WeatherDisplay:10.37,2013-01-21 02:09:00,
2013-01-20 21:14:00,18.7,-0.7,29.86,NW,315,20.3,20.3,42,0.00,BKN,,0.00,WeatherDisplay:10.37,2013-01-21 02:14:00,
2013-01-20 21:19:00,18.6,-0.8,29.86,NW,315,20.7,20.7,42,0.00,BKN,,0.00,WeatherDisplay:10.37,2013-01-21 02:19:00,
2013-01-20 21:24:00,18.4,-0.9,29.86,NNW,338,29.9,29.9,42,0.00,BKN,,0.00,WeatherDisplay:10.37,2013-01-21 02:24:00,
2013-01-20 21:30:00,17.8,-1.4,29.86,NNW,338,20.7,20.7,42,0.00,BKN,,0.00,WeatherDisplay:10.37,2013-01-21 02:30:00,
2013-01-20 21:35:00,17.6,-1.6,29.86,NW,315,29.9,29.9,42,0.00,BKN,,0.00,WeatherDisplay:10.37,2013-01-21 02:35:00,
2013-01-20 21:40:00,17.3,-1.9,29.86,NW,315,36.3,36.3,42,0.00,BKN,,0.00,WeatherDisplay:10.37,2013-01-21 02:40:00,
2013-01-20 21:45:00,17.1,-2.6,29.86,NW,315,25.3,25.3,41,0.00,BKN,,0.00,WeatherDisplay:10.37,2013-01-21 02:45:00,
2013-01-20 21:50:00,16.8,-2.4,29.86,NNW,338,21.9,21.9,42,0.00,BKN,,0.00,WeatherDisplay:10.37,2013-01-21 02:50:00,
2013-01-20 21:55:00,16.6,-2.5,29.86,NNW,338,21.9,21.9,42,0.00,BKN,,0.00,WeatherDisplay:10.37,2013-01-21 02:55:00,
2013-01-20 22:00:00,16.3,-2.8,29.86,NNW,338,17.3,17.3,42,0.00,BKN,,0.00,WeatherDisplay:10.37,2013-01-21 03:00:00,
2013-01-20 22:06:00,16.3,-2.9,29.90,NE,45,20.7,20.7,42,0.00,CLR,,0.00,WeatherDisplay:10.37,2013-01-21 03:06:00,
2013-01-20 22:11:00,16.3,-2.8,29.90,North,360,29.9,29.9,42,0.00,CLR,,0.00,WeatherDisplay:10.37,2013-01-21 03:11:00,
2013-01-20 22:16:00,16.4,-3.3,29.90,NW,315,32.2,32.2,41,0.00,CLR,,0.00,WeatherDisplay:10.37,2013-01-21 03:16:00,
2013-01-20 22:21:00,16.0,-3.6,29.90,NW,315,25.3,25.3,41,0.00,CLR,,0.00,WeatherDisplay:10.37,2013-01-21 03:21:00,
2013-01-20 22:26:00,15.7,-3.4,29.90,North,360,31.1,31.1,42,0.00,CLR,,0.00,WeatherDisplay:10.37,2013-01-21 03:26:00,
2013-01-20 22:31:00,15.6,-3.4,27.28,NW,315,19.6,19.6,42,0.00,CLR,,0.00,WeatherDisplay:10.37,2013-01-21 03:31:00,
2013-01-20 22:36:00,15.5,-3.6,29.90,NW,315,31.1,31.1,42,0.00,CLR,,0.00,WeatherDisplay:10.37,2013-01-21 03:36:00,
2013-01-20 22:41:00,15.4,-3.6,29.90,North,360,25.3,25.3,42,0.00,CLR,,0.00,WeatherDisplay:10.37,2013-01-21 03:41:00,
2013-01-20 22:46:00,15.2,-4.3,29.90,ENE,68,19.6,19.6,41,0.00,CLR,,0.00,WeatherDisplay:10.37,2013-01-21 03:46:00,
2013-01-20 22:51:00,14.8,-4.1,29.90,North,360,20.7,20.7,42,0.00,CLR,,0.00,WeatherDisplay:10.37,2013-01-21 03:51:00,
2013-01-20 22:57:00,14.6,-4.4,29.90,ESE,112,16.1,16.1,42,0.00,CLR,,0.00,WeatherDisplay:10.37,2013-01-21 03:57:00,
2013-01-20 23:02:00,14.6,-4.4,29.92,NNW,338,17.1,17.1,42,0.00,CLR,,0.00,WeatherDisplay:10.37,2013-01-21 04:02:00,
2013-01-20 23:08:00,14.3,-4.6,29.92,West,270,17.6,17.6,42,0.00,CLR,,0.00,WeatherDisplay:10.37,2013-01-21 04:08:00,
2013-01-20 23:13:00,14.2,-4.7,27.28,NW,315,15.0,15.0,42,0.00,CLR,,0.00,WeatherDisplay:10.37,2013-01-21 04:13:00,
2013-01-20 23:18:00,14.2,-4.8,29.92,WNW,292,23.0,23.0,42,0.00,CLR,,0.00,WeatherDisplay:10.37,2013-01-21 04:18:00,
2013-01-20 23:23:00,14.3,-3.7,29.92,NE,45,15.0,15.0,44,0.00,CLR,,0.00,WeatherDisplay:10.37,2013-01-21 04:23:00,
2013-01-20 23:28:00,14.0,-3.9,29.92,North,360,22.9,22.9,44,0.00,CLR,,0.00,WeatherDisplay:10.37,2013-01-21 04:28:00,
2013-01-20 23:33:00,13.8,-5.1,29.92,North,360,15.0,15.0,42,0.00,CLR,,0.00,WeatherDisplay:10.37,2013-01-21 04:33:00,
2013-01-20 23:38:00,13.8,-4.1,29.92,North,360,15.0,15.0,44,0.00,CLR,,0.00,WeatherDisplay:10.37,2013-01-21 04:38:00,
2013-01-20 23:43:00,13.9,-5.0,27.28,NW,315,13.8,13.8,42,0.00,CLR,,0.00,WeatherDisplay:10.37,2013-01-21 04:43:00,
2013-01-20 23:48:00,13.9,-5.0,29.92,NW,315,26.5,26.5,42,0.00,CLR,,0.00,WeatherDisplay:10.37,2013-01-21 04:48:00,
2013-01-20 23:53:00,13.7,-5.2,29.92,NNW,338,21.9,21.9,42,0.00,CLR,,0.00,WeatherDisplay:10.37,2013-01-21 04:53:00,
2013-01-20 23:58:00,14.0,-4.9,29.92,NNW,338,18.4,18.4,42,0.00,CLR,,0.00,WeatherDisplay:10.37,2013-01-21 04:58:00,